Time;durP1;ratioP1;P1;durP2;ratioP2;P2;SDS_P1;SDS_P2;PMS_P1;PMS_P2;Temp;Humidity;BMP_temperature;BMP_pressure;BME280_temperature;BME280_humidity;BME280_pressure;Samples;Min_cycle;Max_cycle;Signal;HPM_P1;HPM_P2
2021/04/30 00:01:50;;;;;;;41.73;27.73;;;;;;;12.74;60.61;100267.56;5116676;28;20564;-47
2021/04/30 00:04:17;;;;;;;44.30;27.43;;;;;;;12.87;59.65;100271.34;5118095;28;20558;-48
2021/04/30 00:06:45;;;;;;;48.67;29.37;;;;;;;12.83;59.92;100273.84;5116807;28;20473;-48
2021/04/30 00:09:12;;;;;;;44.73;28.37;;;;;;;12.85;59.62;100273.00;5117216;28;20536;-47
2021/04/30 00:11:39;;;;;;;44.17;27.40;;;;;;;12.93;59.81;100276.66;5116473;28;20767;-49
2021/04/30 00:14:06;;;;;;;50.30;30.77;;;;;;;12.83;59.67;100279.00;5117912;28;20479;-47
2021/04/30 00:16:39;;;;;;;50.40;28.67;;;;;;;12.83;59.72;100280.75;5116893;28;20470;-47
2021/04/30 00:19:06;;;;;;;44.33;27.63;;;;;;;12.90;59.69;100281.75;5117678;28;20462;-47
2021/04/30 00:21:33;;;;;;;49.57;31.30;;;;;;;12.73;60.05;100292.59;5116191;28;20540;-46
2021/04/30 00:23:59;;;;;;;50.30;30.23;;;;;;;12.68;60.68;100292.44;5117865;28;20457;-48
2021/04/30 00:26:26;;;;;;;57.60;32.63;;;;;;;12.94;60.09;100296.53;5115818;28;20462;-48
2021/04/30 00:28:54;;;;;;;53.67;32.97;;;;;;;12.77;60.24;100289.22;5108146;28;20450;-48
2021/04/30 00:31:21;;;;;;;60.43;32.70;;;;;;;12.82;59.78;100295.38;5105399;28;20795;-49
2021/04/30 00:33:48;;;;;;;58.03;33.47;;;;;;;12.82;60.14;100297.97;5107501;28;20493;-47
2021/04/30 00:36:15;;;;;;;57.10;33.30;;;;;;;12.83;59.71;100301.47;5105228;28;20553;-47
2021/04/30 00:38:42;;;;;;;52.77;32.50;;;;;;;12.93;59.77;100306.00;5106941;28;20424;-49
2021/04/30 00:41:09;;;;;;;62.93;36.70;;;;;;;13.06;59.16;100309.78;5106100;28;20474;-49
2021/04/30 00:43:35;;;;;;;58.37;33.10;;;;;;;13.02;59.69;100305.34;5105719;28;20519;-48
2021/04/30 00:46:02;;;;;;;59.43;33.07;;;;;;;12.43;61.08;100314.22;5105466;28;20440;-48
2021/04/30 00:48:30;;;;;;;54.80;32.23;;;;;;;12.80;60.13;100307.44;5107376;28;20488;-48
2021/04/30 00:50:56;;;;;;;54.03;34.10;;;;;;;12.46;61.25;100313.44;5104831;28;20523;-48
2021/04/30 00:53:23;;;;;;;56.60;35.07;;;;;;;12.66;60.55;100321.69;5105522;28;20454;-47
2021/04/30 00:55:50;;;;;;;59.47;35.60;;;;;;;12.80;60.22;100322.06;5104338;28;20478;-48
2021/04/30 00:58:17;;;;;;;52.83;32.10;;;;;;;12.83;59.65;100323.03;5107250;28;20428;-47
2021/04/30 01:00:44;;;;;;;56.00;33.30;;;;;;;12.89;59.86;100326.59;5105045;28;20449;-47
2021/04/30 01:03:10;;;;;;;66.73;37.00;;;;;;;13.03;59.43;100329.56;5105001;28;20867;-48
2021/04/30 01:05:38;;;;;;;67.20;35.13;;;;;;;13.09;59.48;100335.75;5106048;28;20895;-48
2021/04/30 01:08:06;;;;;;;55.37;32.97;;;;;;;12.94;59.71;100335.38;5106580;28;20533;-47
2021/04/30 01:10:33;;;;;;;57.33;33.40;;;;;;;12.81;60.01;100350.59;5103748;28;20520;-50
2021/04/30 01:12:59;;;;;;;57.47;35.00;;;;;;;12.89;59.66;100344.72;5106534;28;20452;-47
2021/04/30 01:15:26;;;;;;;58.37;34.60;;;;;;;12.98;59.67;100350.16;5107206;28;20436;-49
2021/04/30 01:17:53;;;;;;;63.50;35.67;;;;;;;13.13;58.80;100351.38;5107437;28;20435;-49
2021/04/30 01:20:20;;;;;;;56.63;32.60;;;;;;;12.75;59.91;100354.72;5104379;28;20470;-50
2021/04/30 01:22:49;;;;;;;54.20;33.33;;;;;;;12.95;59.78;100358.72;5105851;28;20540;-47
2021/04/30 01:25:17;;;;;;;58.37;32.40;;;;;;;13.09;59.39;100364.22;5103786;28;20904;-50
2021/04/30 01:27:44;;;;;;;62.17;35.10;;;;;;;13.08;59.21;100365.06;5105588;28;20439;-47
2021/04/30 01:30:13;;;;;;;55.27;32.53;;;;;;;12.74;59.83;100374.56;5105280;28;20492;-47
2021/04/30 01:32:40;;;;;;;60.07;34.20;;;;;;;13.16;59.23;100382.53;5105116;28;20931;-50
2021/04/30 01:35:09;;;;;;;61.00;36.37;;;;;;;13.07;59.69;100376.28;5097703;28;20454;-49
2021/04/30 01:37:36;;;;;;;58.60;35.37;;;;;;;12.99;59.50;100380.41;5104349;28;20521;-48
2021/04/30 01:40:11;;;;;;;55.43;33.20;;;;;;;13.43;58.31;100389.25;5103891;28;20752;-52
2021/04/30 01:42:38;;;;;;;66.60;36.90;;;;;;;13.44;57.85;100393.59;5104965;28;20457;-46
2021/04/30 01:45:06;;;;;;;56.93;33.73;;;;;;;13.08;58.87;100398.75;5104207;28;20429;-49
2021/04/30 01:47:32;;;;;;;59.20;35.00;;;;;;;13.48;57.54;100409.25;5106380;28;20481;-49
2021/04/30 01:49:59;;;;;;;57.50;33.40;;;;;;;13.43;58.12;100404.78;5103871;28;20486;-50
2021/04/30 01:52:26;;;;;;;59.77;34.17;;;;;;;13.10;58.47;100399.69;5104738;28;20462;-48
2021/04/30 01:54:52;;;;;;;56.23;33.90;;;;;;;13.69;57.54;100412.34;5106346;28;20755;-47
2021/04/30 01:57:20;;;;;;;73.57;37.70;;;;;;;13.19;58.42;100413.69;5104508;28;20927;-47
2021/04/30 01:59:47;;;;;;;58.83;33.97;;;;;;;13.33;58.02;100419.22;5104419;28;20448;-48
2021/04/30 02:02:13;;;;;;;56.13;32.27;;;;;;;13.02;59.16;100413.25;5104815;28;20465;-47
2021/04/30 02:04:40;;;;;;;55.77;33.73;;;;;;;13.00;59.39;100417.50;5104546;28;20459;-48
2021/04/30 02:07:07;;;;;;;59.00;34.37;;;;;;;13.20;58.34;100424.09;5103665;28;20557;-48
2021/04/30 02:09:33;;;;;;;60.90;36.40;;;;;;;13.29;58.76;100420.88;5105875;28;20459;-51
2021/04/30 02:12:00;;;;;;;57.40;33.27;;;;;;;13.53;57.63;100422.31;5103370;28;21005;-49
2021/04/30 02:14:28;;;;;;;80.33;43.10;;;;;;;13.72;58.81;100430.53;5104588;28;20504;-48
2021/04/30 02:16:55;;;;;;;58.53;35.33;;;;;;;13.33;58.35;100433.03;5104594;28;20458;-48
2021/04/30 02:19:22;;;;;;;53.73;33.10;;;;;;;13.57;57.60;100431.94;5103296;28;20473;-48
2021/04/30 02:21:49;;;;;;;52.10;30.90;;;;;;;13.08;58.65;100437.59;5104230;28;20755;-48
2021/04/30 02:24:16;;;;;;;59.03;34.90;;;;;;;12.82;59.65;100436.91;5102951;28;20564;-50
2021/04/30 02:26:42;;;;;;;52.33;32.90;;;;;;;13.00;58.76;100436.53;5093643;28;20555;-50
2021/04/30 02:29:09;;;;;;;55.27;33.50;;;;;;;13.17;59.03;100436.97;5095215;28;20457;-50
2021/04/30 02:31:36;;;;;;;57.63;32.20;;;;;;;13.37;58.19;100450.44;5093423;28;20488;-50
2021/04/30 02:34:03;;;;;;;52.60;31.40;;;;;;;13.35;58.01;100446.91;5095233;28;20833;-48
2021/04/30 02:36:30;;;;;;;57.27;34.10;;;;;;;13.25;57.91;100450.13;5094276;28;20446;-49
2021/04/30 02:38:56;;;;;;;51.30;31.53;;;;;;;13.10;58.51;100454.06;5095182;28;20545;-49
2021/04/30 02:41:23;;;;;;;52.57;31.10;;;;;;;12.98;59.06;100456.34;5093362;28;20485;-47
2021/04/30 02:43:50;;;;;;;54.57;30.60;;;;;;;12.86;59.23;100450.81;5095028;28;20436;-50
2021/04/30 02:46:16;;;;;;;53.23;32.23;;;;;;;13.39;58.31;100454.78;5093477;28;20456;-51
2021/04/30 02:48:45;;;;;;;53.77;31.20;;;;;;;13.12;58.20;100451.50;5095134;28;20527;-47
2021/04/30 02:51:13;;;;;;;51.00;32.00;;;;;;;13.33;57.59;100453.78;5096611;28;20501;-51
2021/04/30 02:53:39;;;;;;;50.23;31.00;;;;;;;12.80;58.81;100457.56;5099202;28;20436;-49
2021/04/30 02:56:06;;;;;;;51.87;32.50;;;;;;;13.21;58.54;100453.47;5097990;28;20461;-51
2021/04/30 02:58:33;;;;;;;47.77;30.00;;;;;;;13.38;57.63;100464.25;5099221;28;20513;-50
2021/04/30 03:01:00;;;;;;;43.23;26.90;;;;;;;13.45;56.92;100463.59;5097810;28;20875;-47
2021/04/30 03:03:26;;;;;;;50.07;30.13;;;;;;;13.58;57.37;100463.94;5100992;28;20458;-50
2021/04/30 03:05:54;;;;;;;47.33;28.90;;;;;;;13.65;56.62;100471.03;5107559;28;20499;-48
2021/04/30 03:08:21;;;;;;;49.33;28.97;;;;;;;13.56;56.70;100465.59;5107369;28;20872;-47
2021/04/30 03:10:48;;;;;;;42.70;27.00;;;;;;;13.59;56.36;100465.69;5107582;28;20501;-51
2021/04/30 03:13:15;;;;;;;44.87;26.87;;;;;;;13.73;56.58;100471.19;5108498;28;20449;-48
2021/04/30 03:15:42;;;;;;;48.60;29.07;;;;;;;13.55;56.29;100469.03;5103104;28;20484;-46
2021/04/30 03:18:08;;;;;;;43.50;27.53;;;;;;;13.51;56.69;100470.66;5098576;28;20885;-49
2021/04/30 03:20:35;;;;;;;42.53;26.57;;;;;;;13.37;56.76;100478.94;5097449;28;20467;-52
2021/04/30 03:23:02;;;;;;;40.87;24.97;;;;;;;13.46;56.65;100477.44;5098719;28;20474;-47
2021/04/30 03:25:29;;;;;;;42.67;25.43;;;;;;;13.19;57.27;100484.50;5097086;28;20444;-47
2021/04/30 03:27:56;;;;;;;45.33;27.80;;;;;;;13.29;57.55;100488.22;5118288;28;20464;-49
2021/04/30 03:30:22;;;;;;;42.40;26.30;;;;;;;13.46;56.73;100487.81;5117422;28;20469;-48
2021/04/30 03:32:49;;;;;;;45.03;26.43;;;;;;;13.07;57.91;100498.00;5118508;28;20558;-48
2021/04/30 03:35:18;;;;;;;48.90;26.83;;;;;;;13.13;57.56;100502.47;5117889;28;20578;-53
2021/04/30 03:37:45;;;;;;;47.17;27.43;;;;;;;13.54;56.57;100499.25;5118673;28;20551;-49
2021/04/30 03:40:15;;;;;;;43.10;26.83;;;;;;;13.41;56.67;100507.50;5117488;28;20462;-49
2021/04/30 03:42:41;;;;;;;42.33;27.10;;;;;;;13.50;56.88;100507.78;5118442;28;20469;-49
2021/04/30 03:45:09;;;;;;;48.03;27.13;;;;;;;13.69;56.14;100518.63;5117479;28;20435;-48
2021/04/30 03:47:36;;;;;;;47.37;28.30;;;;;;;13.84;55.27;100516.41;5118316;28;20428;-48
2021/04/30 03:50:03;;;;;;;42.37;26.07;;;;;;;13.83;55.04;100525.03;5117759;27;20455;-48
2021/04/30 03:52:30;;;;;;;41.50;24.53;;;;;;;13.74;55.69;100525.66;5118376;28;20458;-48
2021/04/30 03:54:56;;;;;;;40.57;25.20;;;;;;;13.60;56.39;100535.69;5117225;28;20436;-48
2021/04/30 03:57:23;;;;;;;38.10;24.97;;;;;;;13.41;56.27;100533.41;5117828;28;20485;-49
2021/04/30 03:59:50;;;;;;;36.43;24.33;;;;;;;13.40;56.35;100531.66;5117453;28;20430;-49
2021/04/30 04:02:17;;;;;;;45.27;27.27;;;;;;;13.78;55.63;100537.00;5117272;28;20484;-50
2021/04/30 04:04:43;;;;;;;44.40;28.10;;;;;;;14.22;55.10;100540.63;5118381;28;20809;-48
2021/04/30 04:07:10;;;;;;;45.33;28.07;;;;;;;14.09;54.59;100542.06;5117019;28;20452;-52
2021/04/30 04:09:36;;;;;;;41.73;26.60;;;;;;;14.32;54.34;100548.66;5117712;28;21340;-48
2021/04/30 04:12:05;;;;;;;46.27;26.47;;;;;;;14.08;54.94;100556.75;5116984;27;20452;-50
2021/04/30 04:14:34;;;;;;;41.77;26.50;;;;;;;14.03;55.05;100556.66;5117586;28;20465;-49
2021/04/30 04:17:00;;;;;;;47.67;27.80;;;;;;;14.03;55.03;100558.34;5116691;28;20453;-50
2021/04/30 04:19:49;;;;;;;43.90;27.57;;;;;;;13.92;55.21;100558.09;5117441;28;20429;-47
2021/04/30 04:22:16;;;;;;;44.90;28.50;;;;;;;13.60;55.97;100561.59;5117174;28;20508;-50
2021/04/30 04:24:43;;;;;;;46.40;28.80;;;;;;;14.07;55.06;100565.38;5117768;28;20423;-49
2021/04/30 04:27:09;;;;;;;42.47;28.13;;;;;;;14.03;55.31;100567.03;5116594;28;21007;-50
2021/04/30 04:29:37;;;;;;;45.87;28.20;;;;;;;13.81;55.73;100570.78;5117377;28;20765;-49
2021/04/30 04:32:05;;;;;;;47.53;27.83;;;;;;;13.79;56.17;100576.78;5116090;28;21168;-50
2021/04/30 04:34:33;;;;;;;49.43;29.20;;;;;;;13.67;56.38;100579.91;5117534;28;20914;-51
2021/04/30 04:36:59;;;;;;;54.87;33.50;;;;;;;13.80;56.47;100579.41;5116680;28;20528;-49
2021/04/30 04:39:26;;;;;;;55.87;30.53;;;;;;;13.41;57.06;100585.25;5116841;28;20450;-49
2021/04/30 04:41:53;;;;;;;50.20;30.57;;;;;;;13.15;57.98;100593.16;5116046;28;20754;-48
2021/04/30 04:44:19;;;;;;;53.10;31.33;;;;;;;13.48;57.12;100587.19;5117501;28;20453;-48
2021/04/30 04:46:47;;;;;;;50.90;30.20;;;;;;;13.03;57.92;100599.75;5116366;28;20520;-47
2021/04/30 04:49:14;;;;;;;54.40;32.50;;;;;;;13.17;57.87;100589.78;5117190;28;20458;-49
2021/04/30 04:51:41;;;;;;;50.40;30.90;;;;;;;13.41;57.06;100593.03;5115281;28;20487;-48
2021/04/30 04:54:08;;;;;;;60.80;34.33;;;;;;;13.63;56.60;100592.81;5117216;28;20467;-50
2021/04/30 04:56:34;;;;;;;55.53;34.00;;;;;;;13.72;56.37;100602.53;5115691;27;20754;-48
2021/04/30 04:59:01;;;;;;;58.13;33.23;;;;;;;13.64;56.07;100606.63;5117020;28;20435;-50
2021/04/30 05:01:27;;;;;;;61.47;36.10;;;;;;;13.75;55.42;100599.16;5115640;28;20452;-48
2021/04/30 05:03:55;;;;;;;48.97;30.87;;;;;;;13.76;55.01;100604.34;5117074;28;20454;-50
2021/04/30 05:06:21;;;;;;;57.63;34.10;;;;;;;13.50;56.06;100599.34;5116105;28;20776;-52
2021/04/30 05:08:48;;;;;;;49.90;31.10;;;;;;;13.58;56.04;100602.16;5116609;28;20476;-52
2021/04/30 05:11:15;;;;;;;49.53;29.83;;;;;;;13.64;55.93;100610.13;5115497;28;20482;-49
2021/04/30 05:13:41;;;;;;;51.40;30.80;;;;;;;13.95;54.86;100607.44;5115788;28;20868;-48
2021/04/30 05:16:08;;;;;;;50.53;30.70;;;;;;;13.85;54.74;100603.72;5115922;28;20492;-48
2021/04/30 05:18:35;;;;;;;55.43;33.07;;;;;;;13.84;55.58;100612.34;5116806;28;20428;-46
2021/04/30 05:21:02;;;;;;;46.93;28.57;;;;;;;14.03;54.19;100608.53;5115182;28;20475;-48
2021/04/30 05:23:29;;;;;;;46.47;29.47;;;;;;;13.75;55.18;100614.72;5116681;28;20561;-49
2021/04/30 05:25:55;;;;;;;47.17;29.53;;;;;;;13.56;56.15;100622.00;5115037;28;20566;-48
2021/04/30 05:28:22;;;;;;;47.67;30.10;;;;;;;14.13;54.30;100627.78;5116687;28;20723;-47
2021/04/30 05:30:49;;;;;;;46.80;29.73;;;;;;;13.98;54.77;100636.06;5114782;28;20875;-48
2021/04/30 05:33:15;;;;;;;46.60;29.23;;;;;;;14.05;54.27;100631.88;5116165;28;20475;-53
2021/04/30 05:35:42;;;;;;;46.40;29.73;;;;;;;13.88;54.47;100636.63;5114965;28;20791;-48
2021/04/30 05:38:09;;;;;;;44.43;29.13;;;;;;;14.04;54.11;100637.91;5116480;28;20746;-47
2021/04/30 05:40:36;;;;;;;46.03;27.47;;;;;;;14.16;53.84;100640.81;5114896;28;20473;-48
2021/04/30 05:43:03;;;;;;;50.90;31.13;;;;;;;13.67;55.05;100655.09;5116327;28;20473;-49
2021/04/30 05:45:29;;;;;;;41.77;27.23;;;;;;;13.43;55.70;100645.78;5114670;28;20463;-49
2021/04/30 05:47:56;;;;;;;50.20;29.67;;;;;;;13.97;54.64;100641.19;5115820;28;20541;-51
2021/04/30 05:50:22;;;;;;;50.83;30.57;;;;;;;13.93;54.83;100653.22;5115144;28;20461;-49
2021/04/30 05:52:49;;;;;;;44.87;29.13;;;;;;;13.81;54.67;100651.19;5115931;28;20575;-51
2021/04/30 05:55:16;;;;;;;47.50;29.63;;;;;;;13.28;56.14;100664.38;5115133;28;20471;-49
2021/04/30 05:57:43;;;;;;;47.20;30.13;;;;;;;13.69;55.64;100663.81;5115881;28;20892;-48
2021/04/30 06:00:12;;;;;;;44.93;28.10;;;;;;;14.12;54.81;100659.75;5114626;28;20751;-51
2021/04/30 06:02:39;;;;;;;50.73;30.10;;;;;;;13.70;55.64;100669.00;5115545;28;20569;-51
2021/04/30 06:05:07;;;;;;;47.43;29.53;;;;;;;13.78;55.35;100684.78;5115556;28;20463;-51
2021/04/30 06:07:34;;;;;;;41.93;28.07;;;;;;;13.87;55.18;100669.50;5115190;28;21185;-51
2021/04/30 06:10:02;;;;;;;44.10;28.43;;;;;;;13.95;55.22;100677.47;5114140;28;20461;-48
2021/04/30 06:12:30;;;;;;;44.73;27.43;;;;;;;13.76;56.08;100684.75;5115722;28;20496;-49
2021/04/30 06:14:56;;;;;;;50.73;30.60;;;;;;;14.17;54.39;100678.91;5114903;28;20539;-48
2021/04/30 06:17:24;;;;;;;50.23;30.40;;;;;;;14.75;52.80;100679.44;5115481;28;20486;-50
2021/04/30 06:19:51;;;;;;;41.73;26.57;;;;;;;14.44;53.64;100675.25;5115053;28;20459;-50
2021/04/30 06:22:18;;;;;;;43.53;28.10;;;;;;;14.34;54.24;100686.25;5114860;28;20462;-47
2021/04/30 06:24:44;;;;;;;40.90;27.57;;;;;;;14.22;54.12;100678.16;5115988;28;20546;-47
2021/04/30 06:27:11;;;;;;;49.53;30.30;;;;;;;14.62;53.66;100684.34;5118331;28;20781;-47
2021/04/30 06:29:38;;;;;;;41.57;27.30;;;;;;;14.49;54.16;100684.84;5119347;28;20798;-47
2021/04/30 06:32:05;;;;;;;39.77;26.40;;;;;;;14.20;54.06;100687.63;5118533;28;20474;-48
2021/04/30 06:34:33;;;;;;;37.50;24.90;;;;;;;14.11;54.64;100694.31;5119766;28;20460;-48
2021/04/30 06:37:00;;;;;;;40.40;26.60;;;;;;;14.40;53.36;100701.97;5118655;28;20458;-50
2021/04/30 06:39:27;;;;;;;43.20;25.20;;;;;;;14.46;53.14;100703.81;5119677;28;20460;-51
2021/04/30 06:41:56;;;;;;;36.97;25.73;;;;;;;14.74;52.88;100701.03;5118102;28;20914;-47
2021/04/30 06:44:22;;;;;;;38.63;24.80;;;;;;;14.14;53.01;100712.56;5119207;28;20456;-49
2021/04/30 06:46:50;;;;;;;37.00;24.07;;;;;;;14.13;53.39;100716.00;5118610;28;20487;-50
2021/04/30 06:49:17;;;;;;;37.97;24.60;;;;;;;14.65;52.95;100718.16;5119760;28;20572;-50
2021/04/30 06:51:44;;;;;;;35.03;21.70;;;;;;;14.09;53.84;100732.31;5118241;28;20475;-49
2021/04/30 06:54:11;;;;;;;40.43;25.37;;;;;;;14.72;53.65;100729.56;5119138;28;20460;-50
2021/04/30 06:56:37;;;;;;;40.87;26.37;;;;;;;15.11;52.60;100733.09;5118379;28;20789;-49
2021/04/30 06:59:04;;;;;;;41.07;25.40;;;;;;;14.67;52.45;100737.22;5119394;28;20457;-50
2021/04/30 07:01:30;;;;;;;34.33;22.20;;;;;;;14.89;52.20;100736.91;5117698;28;20483;-49
2021/04/30 07:03:58;;;;;;;30.63;20.30;;;;;;;15.06;50.35;100739.91;5119401;28;20458;-49
2021/04/30 07:06:24;;;;;;;30.03;20.37;;;;;;;15.00;50.93;100740.66;5118417;28;20476;-47
2021/04/30 07:08:52;;;;;;;30.43;21.50;;;;;;;14.97;50.51;100746.66;5119248;28;20534;-47
2021/04/30 07:11:19;;;;;;;30.37;20.60;;;;;;;14.36;52.05;100754.63;5117209;28;20483;-48
2021/04/30 07:13:45;;;;;;;33.23;22.57;;;;;;;14.82;51.84;100751.50;5119354;28;20547;-49
2021/04/30 07:16:12;;;;;;;32.40;21.00;;;;;;;14.51;52.21;100756.75;5118069;28;20483;-48
2021/04/30 07:18:38;;;;;;;26.87;19.70;;;;;;;14.69;52.14;100761.53;5119267;28;20754;-48
2021/04/30 07:21:06;;;;;;;32.03;20.40;;;;;;;14.97;51.51;100758.75;5117364;28;20927;-48
2021/04/30 07:23:33;;;;;;;32.20;21.43;;;;;;;14.91;51.34;100761.22;5118883;28;20813;-50
2021/04/30 07:26:00;;;;;;;27.67;20.00;;;;;;;14.97;52.29;100767.44;5117830;28;20476;-47
2021/04/30 07:28:27;;;;;;;30.07;21.07;;;;;;;15.17;52.36;100759.22;5119078;28;20451;-48
2021/04/30 07:30:53;;;;;;;30.33;21.40;;;;;;;15.16;52.78;100766.97;5117147;28;20838;-47
2021/04/30 07:33:20;;;;;;;28.27;20.07;;;;;;;15.39;51.62;100770.13;5118496;28;20452;-47
2021/04/30 07:35:47;;;;;;;35.07;20.00;;;;;;;15.39;52.13;100770.13;5117093;28;20484;-47
2021/04/30 07:38:14;;;;;;;28.60;18.47;;;;;;;15.21;50.91;100778.34;5117367;28;20547;-48
2021/04/30 07:40:44;;;;;;;25.30;17.83;;;;;;;15.00;49.91;100779.63;5117254;28;20768;-47
2021/04/30 07:43:11;;;;;;;27.23;18.30;;;;;;;15.27;49.41;100790.63;5118774;28;20457;-46
2021/04/30 07:45:38;;;;;;;27.17;18.27;;;;;;;15.15;50.02;100781.69;5116855;28;20482;-47
2021/04/30 07:48:08;;;;;;;26.10;18.77;;;;;;;15.10;50.73;100785.91;5118233;28;20453;-50
2021/04/30 07:50:35;;;;;;;29.30;18.77;;;;;;;15.23;52.71;100795.75;5117298;28;20476;-51
2021/04/30 07:53:02;;;;;;;26.87;17.83;;;;;;;15.30;51.00;100795.88;5118472;28;20484;-47
2021/04/30 07:55:30;;;;;;;27.30;18.57;;;;;;;15.25;49.86;100795.78;5116814;28;20559;-48
2021/04/30 07:57:57;;;;;;;30.27;17.83;;;;;;;15.33;51.09;100796.81;5118313;28;20453;-49
2021/04/30 08:00:23;;;;;;;24.03;17.70;;;;;;;15.27;50.58;100793.22;5116839;28;20960;-53
2021/04/30 08:02:50;;;;;;;29.07;18.53;;;;;;;15.55;49.43;100797.31;5118196;28;20476;-49
2021/04/30 08:05:17;;;;;;;22.97;17.30;;;;;;;15.64;49.28;100797.50;5117048;28;20468;-52
2021/04/30 08:07:44;;;;;;;43.67;25.83;;;;;;;15.72;48.27;100805.47;5108851;28;20878;-49
2021/04/30 08:10:11;;;;;;;31.30;20.60;;;;;;;15.43;49.28;100805.72;5105779;28;20485;-47
2021/04/30 08:12:39;;;;;;;20.50;14.90;;;;;;;15.70;48.86;100804.59;5117461;28;20502;-48
2021/04/30 08:15:07;;;;;;;19.70;14.07;;;;;;;15.51;47.90;100804.19;5113060;28;20465;-50
2021/04/30 08:17:33;;;;;;;24.33;15.27;;;;;;;15.72;47.92;100810.69;5105301;28;20461;-47
2021/04/30 08:20:00;;;;;;;22.60;15.90;;;;;;;15.46;47.90;100808.41;5112292;28;20936;-47
2021/04/30 08:22:27;;;;;;;21.23;15.10;;;;;;;15.64;48.08;100817.44;5117588;28;20580;-48
2021/04/30 08:24:54;;;;;;;22.37;15.30;;;;;;;15.34;49.23;100821.09;5116798;28;20837;-50
2021/04/30 08:27:21;;;;;;;23.87;14.03;;;;;;;15.51;48.55;100817.19;5117356;28;20481;-48
2021/04/30 08:29:49;;;;;;;22.97;15.23;;;;;;;15.49;49.05;100818.84;5117211;28;20822;-47
2021/04/30 08:32:15;;;;;;;21.23;14.67;;;;;;;15.40;48.10;100826.44;5116306;28;20477;-47
2021/04/30 08:34:43;;;;;;;25.73;17.60;;;;;;;15.42;49.04;100832.56;5115555;28;20822;-49
2021/04/30 08:37:10;;;;;;;20.57;13.97;;;;;;;15.18;48.99;100832.88;5100760;28;20844;-49
2021/04/30 08:39:37;;;;;;;24.33;14.53;;;;;;;14.84;48.74;100833.81;5116265;28;20551;-47
2021/04/30 08:42:03;;;;;;;19.63;13.83;;;;;;;15.25;48.81;100835.66;5112120;28;20476;-48
2021/04/30 08:44:31;;;;;;;26.10;18.17;;;;;;;15.41;48.99;100841.19;5101093;28;20842;-48
2021/04/30 08:46:59;;;;;;;23.40;15.50;;;;;;;15.55;48.19;100833.72;5094859;28;20482;-47
2021/04/30 08:49:25;;;;;;;18.93;12.70;;;;;;;15.53;48.27;100831.09;5094865;28;20819;-48
2021/04/30 08:51:52;;;;;;;28.53;17.87;;;;;;;15.68;47.58;100828.78;5094530;28;20478;-47
2021/04/30 08:54:19;;;;;;;17.33;12.43;;;;;;;15.82;47.17;100829.06;5095910;28;20480;-49
2021/04/30 08:56:49;;;;;;;24.30;16.60;;;;;;;15.61;48.25;100836.47;5094595;28;21011;-48
2021/04/30 08:59:16;;;;;;;23.07;15.70;;;;;;;15.62;48.62;100833.00;5096166;28;20457;-46
2021/04/30 09:01:43;;;;;;;22.60;15.50;;;;;;;15.62;48.00;100832.13;5094129;28;20482;-48
2021/04/30 09:04:11;;;;;;;19.67;12.37;;;;;;;15.93;45.89;100830.22;5096403;28;20461;-48
2021/04/30 09:06:39;;;;;;;19.20;12.30;;;;;;;16.10;46.02;100829.69;5095134;28;20510;-47
2021/04/30 09:09:08;;;;;;;24.97;16.60;;;;;;;16.06;46.78;100834.81;5096037;28;20458;-52
2021/04/30 09:11:36;;;;;;;14.73;10.70;;;;;;;16.01;46.27;100841.66;5094119;28;20488;-48
2021/04/30 09:14:29;;;;;;;16.87;11.30;;;;;;;16.19;45.14;100842.88;5096108;28;20466;-48
2021/04/30 09:17:09;;;;;;;13.67;10.13;;;;;;;15.91;45.12;100843.16;5094403;28;20505;-47
2021/04/30 09:19:44;;;;;;;19.20;10.67;;;;;;;15.88;46.20;100844.81;5095620;28;20484;-50
2021/04/30 09:22:11;;;;;;;16.93;11.70;;;;;;;16.39;46.11;100850.19;5094752;28;21034;-48
2021/04/30 09:24:38;;;;;;;18.07;11.67;;;;;;;16.07;46.00;100846.13;5095572;28;20545;-47
2021/04/30 09:27:05;;;;;;;16.20;11.50;;;;;;;16.50;45.11;100848.69;5094172;28;20478;-47
2021/04/30 09:29:34;;;;;;;15.10;11.13;;;;;;;16.33;45.92;100849.25;5095436;28;20483;-50
2021/04/30 09:32:02;;;;;;;21.80;12.50;;;;;;;16.49;44.45;100853.84;5093777;28;20561;-49
2021/04/30 09:34:30;;;;;;;16.40;11.47;;;;;;;16.30;45.35;100848.28;5095730;28;20453;-50
2021/04/30 09:37:04;;;;;;;17.30;12.20;;;;;;;16.50;45.56;100848.69;5114100;28;20912;-47
2021/04/30 09:39:47;;;;;;;15.83;11.40;;;;;;;16.55;44.77;100852.25;5115644;28;20461;-54
2021/04/30 09:42:20;;;;;;;18.70;12.80;;;;;;;16.22;45.51;100845.56;5116001;28;20471;-47
2021/04/30 09:44:48;;;;;;;15.90;11.07;;;;;;;15.71;46.52;100852.25;5115760;28;20459;-50
2021/04/30 09:47:17;;;;;;;16.47;12.00;;;;;;;16.25;46.20;100858.63;5114732;28;20465;-49
2021/04/30 09:49:44;;;;;;;17.57;11.70;;;;;;;16.13;45.32;100854.06;5103449;28;20477;-48
2021/04/30 09:52:12;;;;;;;16.43;12.03;;;;;;;16.28;45.23;100853.50;5100232;28;20931;-51
2021/04/30 09:54:40;;;;;;;17.13;11.53;;;;;;;16.64;44.32;100855.88;5116214;28;20487;-49
2021/04/30 09:57:12;;;;;;;16.80;11.30;;;;;;;16.84;44.95;100838.88;5114514;28;20476;-47
2021/04/30 09:59:40;;;;;;;17.47;12.00;;;;;;;16.46;44.63;100849.50;5104757;28;20798;-48
2021/04/30 10:02:09;;;;;;;17.97;11.63;;;;;;;15.97;45.10;100844.16;5094063;28;20535;-50
2021/04/30 10:04:37;;;;;;;14.90;10.17;;;;;;;16.38;44.27;100845.84;5095573;28;20462;-50
2021/04/30 10:07:10;;;;;;;15.70;12.03;;;;;;;17.04;43.79;100840.97;5094544;28;20484;-50
2021/04/30 10:09:39;;;;;;;14.13;10.80;;;;;;;17.09;44.12;100839.31;5105548;28;20457;-48
2021/04/30 10:12:23;;;;;;;16.10;11.33;;;;;;;17.38;42.68;100836.28;5103682;28;20468;-49
2021/04/30 10:14:51;;;;;;;15.07;10.70;;;;;;;17.39;41.16;100838.03;5095306;28;20473;-49
2021/04/30 10:17:17;;;;;;;13.20;9.63;;;;;;;17.00;42.97;100837.41;5112579;28;20552;-51
2021/04/30 10:19:46;;;;;;;13.90;10.50;;;;;;;15.89;43.36;100849.19;5110267;28;20470;-49
2021/04/30 10:22:16;;;;;;;18.37;10.73;;;;;;;16.96;42.54;100842.53;5105328;28;20556;-49
2021/04/30 10:24:52;;;;;;;14.20;10.10;;;;;;;17.70;41.83;100841.94;5100786;28;20497;-47
2021/04/30 10:27:20;;;;;;;14.70;9.77;;;;;;;18.25;41.03;100846.13;5094763;28;20548;-48
2021/04/30 10:29:51;;;;;;;13.43;9.20;;;;;;;18.23;39.97;100843.50;5094938;28;20536;-51
2021/04/30 10:32:19;;;;;;;15.33;9.60;;;;;;;19.02;38.94;100836.44;5113317;28;20836;-48
2021/04/30 10:34:47;;;;;;;12.10;9.10;;;;;;;19.27;38.70;100843.59;5115602;28;20505;-53
2021/04/30 10:37:20;;;;;;;12.40;8.83;;;;;;;19.02;37.43;100836.44;5114628;28;20488;-52
2021/04/30 10:39:56;;;;;;;13.47;7.83;;;;;;;17.58;40.66;100843.50;5114820;28;20466;-51
2021/04/30 10:42:29;;;;;;;12.70;8.83;;;;;;;17.89;40.24;100843.94;5115186;28;21076;-47
2021/04/30 10:45:01;;;;;;;13.60;9.80;;;;;;;17.27;41.50;100836.13;5114308;28;20484;-48
2021/04/30 10:47:28;;;;;;;12.30;9.30;;;;;;;16.85;41.67;100830.22;5115721;28;20484;-50
2021/04/30 10:50:18;;;;;;;14.97;9.10;;;;;;;16.12;43.38;100836.69;5113710;28;20528;-50
2021/04/30 10:52:44;;;;;;;11.67;9.13;;;;;;;16.70;42.41;100845.56;5108491;28;20485;-51
2021/04/30 10:55:16;;;;;;;12.80;8.80;;;;;;;16.70;42.51;100840.34;5110824;28;20469;-51
2021/04/30 10:57:56;;;;;;;16.07;10.00;;;;;;;16.78;42.35;100840.50;5115182;28;20461;-49
2021/04/30 11:00:28;;;;;;;17.23;10.13;;;;;;;17.20;42.42;100847.31;5113174;28;20478;-49
2021/04/30 11:03:19;;;;;;;12.87;8.40;;;;;;;17.12;42.94;100848.91;5099157;28;20581;-50
2021/04/30 11:05:53;;;;;;;28.07;15.30;;;;;;;17.10;42.60;100842.78;5094043;28;20469;-54
2021/04/30 11:08:20;;;;;;;14.90;10.10;;;;;;;17.23;42.13;100842.13;5094871;28;20457;-52
2021/04/30 11:10:48;;;;;;;17.63;10.97;;;;;;;17.03;41.47;100839.22;5093334;28;20481;-52
2021/04/30 11:13:17;;;;;;;19.83;12.33;;;;;;;17.78;41.22;100851.63;5098864;28;20494;-50